createdAt,value
2023-04-22T00:00:14.212Z,51.92
2023-04-22T00:03:09.341Z,52.00
2023-04-22T00:05:38.501Z,52.07
2023-04-22T00:08:06.985Z,52.20
2023-04-22T00:10:34.994Z,52.02
2023-04-22T00:13:03.298Z,52.08
2023-04-22T00:15:34.621Z,52.12
2023-04-22T00:18:03.356Z,52.17
2023-04-22T00:20:33.115Z,52.37
2023-04-22T00:23:00.987Z,52.29
2023-04-22T00:25:28.839Z,52.18
2023-04-22T00:27:57.308Z,52.20
2023-04-22T00:30:25.304Z,52.32
2023-04-22T00:32:53.914Z,52.47
2023-04-22T00:35:22.386Z,52.57
2023-04-22T00:37:50.260Z,52.55
2023-04-22T00:40:18.295Z,52.56
2023-04-22T00:42:49.559Z,52.53
2023-04-22T00:45:19.968Z,52.62
2023-04-22T00:47:49.241Z,52.71
2023-04-22T00:50:17.367Z,52.68
2023-04-22T00:52:45.259Z,52.64
2023-04-22T00:55:13.782Z,52.57
2023-04-22T00:57:42.599Z,52.82
2023-04-22T01:00:11.871Z,52.74
2023-04-22T01:02:40.662Z,52.78
2023-04-22T01:05:11.614Z,52.85
2023-04-22T01:07:39.635Z,52.94
2023-04-22T01:10:08.606Z,53.15
2023-04-22T01:12:36.386Z,53.18
2023-04-22T01:15:07.576Z,53.20
2023-04-22T01:17:36.372Z,53.34
2023-04-22T01:20:05.588Z,53.16
2023-04-22T01:22:41.075Z,53.18
2023-04-22T01:25:11.593Z,53.47
2023-04-22T01:27:41.092Z,53.38
2023-04-22T01:30:12.655Z,53.46
2023-04-22T01:32:41.428Z,53.51
2023-04-22T01:35:10.474Z,53.43
2023-04-22T01:37:39.329Z,53.65
2023-04-22T01:40:11.040Z,53.49
2023-04-22T01:42:39.390Z,53.53
2023-04-22T01:45:07.800Z,53.75
2023-04-22T01:47:35.735Z,53.65
2023-04-22T01:50:04.663Z,53.76
2023-04-22T01:52:32.933Z,53.78
2023-04-22T01:55:02.780Z,53.88
2023-04-22T01:57:30.697Z,53.91
2023-04-22T01:59:58.675Z,54.05
2023-04-22T02:02:27.526Z,53.95
2023-04-22T02:04:55.661Z,53.97
2023-04-22T02:07:23.962Z,54.06
2023-04-22T02:09:52.351Z,53.98
2023-04-22T02:12:20.187Z,54.21
2023-04-22T02:14:51.396Z,54.13
2023-04-22T02:17:19.710Z,54.21
2023-04-22T02:19:47.783Z,54.27
2023-04-22T02:22:17.134Z,54.09
2023-04-22T02:24:45.891Z,54.31
2023-04-22T02:27:13.756Z,54.45
2023-04-22T02:29:42.127Z,54.39
2023-04-22T02:32:10.759Z,54.38
2023-04-22T02:34:38.690Z,54.50
2023-04-22T02:37:06.500Z,54.50
2023-04-22T02:39:35.359Z,54.59
2023-04-22T02:42:03.307Z,54.63
2023-04-22T02:44:31.312Z,54.61
2023-04-22T02:46:59.724Z,54.77
2023-04-22T02:49:27.901Z,54.70
2023-04-22T02:51:57.416Z,54.79
2023-04-22T02:54:25.833Z,54.92
2023-04-22T02:56:53.657Z,54.90
2023-04-22T02:59:22.339Z,55.11
2023-04-22T03:01:50.927Z,55.10
2023-04-22T03:04:22.129Z,55.25
2023-04-22T03:06:50.216Z,55.01
2023-04-22T03:09:18.359Z,55.09
2023-04-22T03:11:46.312Z,55.13
2023-04-22T03:14:14.622Z,55.20
2023-04-22T03:16:42.463Z,55.16
2023-04-22T03:19:10.488Z,55.27
2023-04-22T03:21:38.411Z,55.26
2023-04-22T03:24:06.482Z,55.36
2023-04-22T03:26:35.227Z,55.38
2023-04-22T03:29:03.362Z,55.38
2023-04-22T03:31:31.377Z,55.46
2023-04-22T03:33:59.590Z,55.65
2023-04-22T03:36:33.446Z,55.46
2023-04-22T03:39:01.746Z,55.58
2023-04-22T03:41:29.719Z,55.56
2023-04-22T03:44:00.342Z,55.65
2023-04-22T03:46:29.554Z,55.71
2023-04-22T03:48:57.362Z,55.73
2023-04-22T03:51:25.416Z,55.73
2023-04-22T03:53:53.300Z,55.60
2023-04-22T03:56:21.703Z,55.80
2023-04-22T03:58:52.393Z,55.90
2023-04-22T04:01:21.008Z,56.03
2023-04-22T04:03:49.274Z,56.04
2023-04-22T04:06:17.348Z,55.89
2023-04-22T04:08:46.291Z,55.96
2023-04-22T04:11:14.418Z,56.11
2023-04-22T04:13:42.288Z,56.13
2023-04-22T04:16:10.652Z,56.07
2023-04-22T04:18:38.898Z,56.11
2023-04-22T04:21:06.862Z,56.19
2023-04-22T04:23:34.655Z,56.34
2023-04-22T04:26:03.117Z,56.27
2023-04-22T04:28:32.989Z,56.40
2023-04-22T04:31:03.007Z,56.52
2023-04-22T04:33:32.710Z,56.48
2023-04-22T04:36:00.622Z,56.78
2023-04-22T04:38:29.067Z,56.74
2023-04-22T04:40:56.918Z,56.88
2023-04-22T04:43:26.282Z,56.76
2023-04-22T04:45:54.374Z,56.87
2023-04-22T04:48:25.288Z,56.92
2023-04-22T04:50:54.310Z,57.14
2023-04-22T04:53:22.737Z,57.21
2023-04-22T04:55:54.211Z,57.16
2023-04-22T04:58:22.944Z,57.14
2023-04-22T05:00:51.819Z,57.12
2023-04-22T05:03:19.889Z,57.16
2023-04-22T05:05:49.125Z,57.43
2023-04-22T05:08:17.683Z,57.48
2023-04-22T05:10:45.543Z,57.33
2023-04-22T05:13:13.743Z,57.28
2023-04-22T05:15:41.877Z,57.49
2023-04-22T05:18:10.178Z,57.39
2023-04-22T05:20:38.062Z,57.62
2023-04-22T05:23:06.107Z,57.35
2023-04-22T05:25:33.937Z,57.40
2023-04-22T05:28:02.355Z,57.43
2023-04-22T05:30:30.303Z,57.62
2023-04-22T05:32:58.199Z,57.49
2023-04-22T05:35:26.239Z,57.50
2023-04-22T05:37:54.193Z,57.53
2023-04-22T05:40:27.857Z,57.59
2023-04-22T05:42:58.214Z,57.61
2023-04-22T05:45:26.096Z,57.59
2023-04-22T05:47:54.490Z,57.56
2023-04-22T05:50:23.412Z,57.53
2023-04-22T05:52:51.327Z,57.53
2023-04-22T05:55:19.344Z,57.56
2023-04-22T05:57:47.590Z,57.58
2023-04-22T06:00:19.016Z,57.64
2023-04-22T06:02:46.996Z,57.67
2023-04-22T06:05:15.144Z,57.67
2023-04-22T06:07:46.714Z,57.67
2023-04-22T06:10:14.562Z,57.76
2023-04-22T06:12:42.427Z,57.72
2023-04-22T06:15:11.769Z,57.68
2023-04-22T06:17:39.645Z,57.77
2023-04-22T06:20:08.365Z,57.82
2023-04-22T06:22:36.532Z,57.74
2023-04-22T06:25:04.744Z,57.73
2023-04-22T06:27:35.792Z,57.91
2023-04-22T06:30:05.045Z,57.91
2023-04-22T06:32:33.159Z,57.87
2023-04-22T06:35:01.058Z,57.91
2023-04-22T06:37:28.951Z,57.83
2023-04-22T06:39:56.915Z,57.77
2023-04-22T06:42:25.321Z,57.76
2023-04-22T06:44:53.191Z,57.78
2023-04-22T06:47:21.185Z,57.74
2023-04-22T06:49:50.418Z,57.83
2023-04-22T06:52:18.837Z,57.80
2023-04-22T06:54:46.792Z,57.83
2023-04-22T06:57:16.067Z,57.85
2023-04-22T06:59:46.719Z,57.56
2023-04-22T07:02:15.118Z,57.64
2023-04-22T07:04:43.189Z,57.40
2023-04-22T07:07:11.626Z,57.43
2023-04-22T07:09:40.033Z,57.41
2023-04-22T07:12:08.937Z,57.39
2023-04-22T07:14:37.456Z,57.30
2023-04-22T07:17:05.354Z,57.36
2023-04-22T07:19:34.795Z,57.50
2023-04-22T07:22:04.174Z,57.44
2023-04-22T07:24:32.635Z,57.38
2023-04-22T07:27:02.679Z,57.52
2023-04-22T07:29:30.566Z,57.56
2023-04-22T07:31:58.406Z,57.48
2023-04-22T07:34:26.843Z,57.46
2023-04-22T07:36:54.933Z,57.42
2023-04-22T07:39:23.134Z,57.31
2023-04-22T07:41:51.688Z,57.32
2023-04-22T07:44:21.837Z,57.33
2023-04-22T07:46:50.804Z,57.27
2023-04-22T07:49:20.018Z,57.32
2023-04-22T07:51:48.385Z,57.35
2023-04-22T07:54:16.728Z,57.33
2023-04-22T07:56:44.637Z,57.33
2023-04-22T07:59:12.448Z,57.32
2023-04-22T08:01:40.455Z,57.26
2023-04-22T08:04:08.616Z,57.25
2023-04-22T08:06:37.234Z,57.26
2023-04-22T08:09:05.797Z,57.42
2023-04-22T08:11:33.735Z,57.32
2023-04-22T08:14:01.654Z,57.29
2023-04-22T08:16:29.668Z,57.16
2023-04-22T08:18:57.999Z,57.17
2023-04-22T08:21:27.576Z,57.12
2023-04-22T08:23:56.252Z,57.05
2023-04-22T08:26:24.233Z,57.04
2023-04-22T08:28:52.410Z,56.94
2023-04-22T08:31:20.369Z,57.00
2023-04-22T08:33:48.729Z,57.00
2023-04-22T08:36:17.061Z,56.93
2023-04-22T08:38:47.836Z,56.93
2023-04-22T08:41:19.322Z,56.90
2023-04-22T08:43:48.485Z,56.65
2023-04-22T08:46:17.970Z,56.71
2023-04-22T08:48:49.153Z,56.39
2023-04-22T08:51:18.554Z,56.42
2023-04-22T08:53:47.440Z,56.53
2023-04-22T08:56:15.854Z,56.45
2023-04-22T08:58:43.988Z,56.43
2023-04-22T09:01:13.440Z,56.36
2023-04-22T09:03:42.492Z,56.37
2023-04-22T09:06:12.252Z,56.44
2023-04-22T09:08:40.278Z,56.09
2023-04-22T09:11:08.454Z,56.07
2023-04-22T09:13:36.378Z,56.13
2023-04-22T09:16:04.880Z,56.01
2023-04-22T09:18:41.253Z,55.85
2023-04-22T09:21:09.256Z,56.02
2023-04-22T09:23:52.993Z,56.06
2023-04-22T09:26:25.349Z,56.08
2023-04-22T09:29:01.162Z,55.89
2023-04-22T09:31:29.452Z,55.53
2023-04-22T09:33:59.169Z,55.64
2023-04-22T09:36:29.062Z,55.83
2023-04-22T09:38:59.674Z,55.86
2023-04-22T09:41:39.312Z,55.48
2023-04-22T09:44:16.382Z,55.73
2023-04-22T09:46:45.016Z,54.94
2023-04-22T09:49:16.892Z,53.92
2023-04-22T09:51:45.223Z,53.99
2023-04-22T09:54:15.488Z,54.44
2023-04-22T09:56:53.886Z,54.41
2023-04-22T09:59:28.852Z,54.35
2023-04-22T10:02:00.177Z,54.10
2023-04-22T10:04:28.864Z,54.29
2023-04-22T10:06:57.550Z,54.01
2023-04-22T17:56:49.961Z,44.04
2023-04-22T17:59:17.932Z,44.13
2023-04-22T18:01:46.062Z,44.29
2023-04-22T18:04:14.161Z,44.41
2023-04-22T18:06:42.316Z,44.47
2023-04-22T18:09:10.777Z,44.68
2023-04-22T18:11:39.521Z,44.69
2023-04-22T18:14:08.666Z,44.75
2023-04-22T18:16:36.523Z,44.78
2023-04-22T18:19:06.947Z,44.94
2023-04-22T18:21:34.887Z,45.00
2023-04-22T18:24:03.239Z,45.00
2023-04-22T18:26:31.699Z,45.18
2023-04-22T18:28:59.581Z,45.35
2023-04-22T18:31:27.524Z,45.47
2023-04-22T18:33:55.507Z,45.47
2023-04-22T18:36:23.514Z,45.54
2023-04-22T18:38:52.207Z,45.67
2023-04-22T18:41:20.689Z,45.75
2023-04-22T18:43:48.724Z,45.83
2023-04-22T18:46:16.701Z,45.90
2023-04-22T18:48:44.639Z,46.05
2023-04-22T18:51:13.619Z,46.05
2023-04-22T18:53:42.049Z,46.15
2023-04-22T18:56:10.429Z,46.08
2023-04-22T18:58:41.889Z,46.18
2023-04-22T19:01:12.016Z,46.40
2023-04-22T19:03:40.360Z,46.66
2023-04-22T19:06:08.736Z,46.54
2023-04-22T19:08:37.145Z,46.59
2023-04-22T19:11:05.752Z,46.72
2023-04-22T19:13:33.636Z,46.75
2023-04-22T19:16:01.660Z,46.79
2023-04-22T19:18:29.857Z,46.89
2023-04-22T19:20:58.176Z,47.02
2023-04-22T19:23:26.922Z,47.12
2023-04-22T19:25:54.715Z,47.13
2023-04-22T19:28:22.565Z,47.07
2023-04-22T19:30:51.981Z,47.27
2023-04-22T19:33:20.529Z,47.24
2023-04-22T19:35:49.129Z,47.33
2023-04-22T19:38:21.539Z,47.38
2023-04-22T19:40:50.980Z,47.53
2023-04-22T19:43:19.431Z,47.62
2023-04-22T19:45:47.730Z,47.58
2023-04-22T19:48:16.046Z,47.72
2023-04-22T19:50:50.734Z,47.82
2023-04-22T19:53:20.664Z,47.80
2023-04-22T19:55:48.744Z,47.82
2023-04-22T19:58:17.303Z,47.87
2023-04-22T20:00:46.230Z,47.97
2023-04-22T20:03:16.305Z,48.02
2023-04-22T20:05:46.745Z,48.09
2023-04-22T20:08:15.914Z,48.10
2023-04-22T20:10:45.172Z,48.23
2023-04-22T20:13:13.794Z,48.18
2023-04-22T20:15:45.834Z,48.29
2023-04-22T20:18:17.097Z,48.31
2023-04-22T20:20:49.217Z,48.40
2023-04-22T20:23:21.266Z,48.47
2023-04-22T20:25:50.959Z,48.43
2023-04-22T20:28:19.430Z,48.56
2023-04-22T20:30:47.877Z,48.57
2023-04-22T20:33:18.048Z,48.64
2023-04-22T20:35:49.368Z,48.73
2023-04-22T20:38:19.563Z,48.68
2023-04-22T20:40:47.840Z,48.78
2023-04-22T20:43:16.571Z,48.85
2023-04-22T20:45:44.396Z,48.92
2023-04-22T20:48:12.347Z,48.90
2023-04-22T20:50:40.853Z,49.09
2023-04-22T20:53:08.673Z,49.14
2023-04-22T20:55:37.303Z,49.26
2023-04-22T20:58:06.154Z,49.13
2023-04-22T21:00:34.340Z,49.11
2023-04-22T21:03:09.003Z,49.33
2023-04-22T21:05:46.916Z,49.45
2023-04-22T21:08:23.796Z,49.39
2023-04-22T21:10:56.966Z,49.68
2023-04-22T21:13:25.246Z,49.82
2023-04-22T21:16:02.081Z,49.86
2023-04-22T21:18:32.990Z,49.97
2023-04-22T21:21:04.057Z,50.07
2023-04-22T21:23:32.208Z,49.99
2023-04-22T21:26:01.766Z,50.07
2023-04-22T21:28:30.935Z,50.09
2023-04-22T21:30:59.824Z,50.18
2023-04-22T21:33:27.713Z,50.48
2023-04-22T21:35:55.653Z,50.55
2023-04-22T21:38:23.432Z,50.50
2023-04-22T21:40:51.265Z,50.52
2023-04-22T21:43:19.723Z,50.73
2023-04-22T21:45:48.249Z,50.73
2023-04-22T21:48:16.194Z,50.65
2023-04-22T21:50:44.158Z,51.00
2023-04-22T21:53:12.120Z,50.99
2023-04-22T21:55:40.928Z,50.90
2023-04-22T21:58:09.435Z,50.88
2023-04-22T22:00:37.966Z,51.05
2023-04-22T22:03:06.531Z,51.11
2023-04-22T22:05:34.522Z,51.03
2023-04-22T22:08:02.512Z,51.18
2023-04-22T22:10:30.515Z,51.24
2023-04-22T22:12:58.318Z,51.28
2023-04-22T22:15:26.178Z,51.43
2023-04-22T22:17:54.187Z,51.38
2023-04-22T22:20:22.087Z,51.44
2023-04-22T22:22:49.868Z,51.58
2023-04-22T22:25:17.884Z,51.51
2023-04-22T22:27:49.012Z,51.66
2023-04-22T22:30:18.839Z,51.46
2023-04-22T22:32:47.110Z,51.78
2023-04-22T22:35:15.278Z,51.80
2023-04-22T22:37:46.239Z,51.86
2023-04-22T22:40:14.570Z,51.91
2023-04-22T22:42:42.890Z,52.13
2023-04-22T22:45:11.800Z,51.95
2023-04-22T22:47:42.680Z,52.03
2023-04-22T22:50:11.666Z,52.26
2023-04-22T22:52:39.576Z,52.22
2023-04-22T22:55:09.163Z,52.15
2023-04-22T22:57:37.117Z,52.09
2023-04-22T23:00:06.521Z,52.34
2023-04-22T23:02:34.629Z,52.35
2023-04-22T23:05:02.800Z,52.38
2023-04-22T23:07:30.701Z,52.39
2023-04-22T23:09:58.528Z,52.42
2023-04-22T23:12:26.449Z,52.55
2023-04-22T23:14:54.256Z,52.48
2023-04-22T23:17:22.716Z,52.75
2023-04-22T23:19:52.320Z,52.78
2023-04-22T23:22:20.566Z,52.84
2023-04-22T23:24:48.656Z,52.72
2023-04-22T23:27:17.602Z,52.64
2023-04-22T23:29:45.962Z,52.64
2023-04-22T23:32:15.659Z,52.92
2023-04-22T23:34:45.785Z,52.84
2023-04-22T23:37:16.448Z,52.91
2023-04-22T23:39:44.450Z,52.46
2023-04-22T23:42:12.361Z,52.86
2023-04-22T23:44:40.507Z,53.08
2023-04-22T23:47:08.787Z,53.14
2023-04-22T23:49:37.110Z,53.26
2023-04-22T23:52:04.992Z,53.42
2023-04-22T23:54:33.278Z,53.54
2023-04-22T23:57:01.483Z,53.66
2023-04-22T23:59:29.670Z,53.45
